createdAt,value
2023-05-19T14:56:48.491Z,45.57
2023-05-19T14:59:17.087Z,45.60
2023-05-19T15:01:46.037Z,45.86
2023-05-19T15:04:14.624Z,45.98
2023-05-19T15:06:43.085Z,46.09
2023-05-19T15:09:14.851Z,46.45
2023-05-19T15:11:43.383Z,46.39
2023-05-19T15:14:11.810Z,46.38
2023-05-19T15:16:41.255Z,46.15
2023-05-19T15:19:09.559Z,45.97
2023-05-19T15:21:38.098Z,46.32
2023-05-19T15:24:06.987Z,45.94
2023-05-19T15:26:38.054Z,46.53
2023-05-19T15:29:06.564Z,46.75
2023-05-19T15:31:36.602Z,46.01
2023-05-19T15:34:06.733Z,46.10
2023-05-19T15:36:36.433Z,45.85
2023-05-19T15:39:05.218Z,45.62
2023-05-19T15:41:33.599Z,45.21
2023-05-19T15:44:02.924Z,45.01
2023-05-19T15:46:31.257Z,44.86
2023-05-19T15:49:00.154Z,44.59
2023-05-19T15:51:28.779Z,44.34
2023-05-19T15:53:57.152Z,44.70
2023-05-19T15:56:26.156Z,44.66
2023-05-19T15:58:54.554Z,45.57
2023-05-19T16:01:23.064Z,45.78
2023-05-19T16:03:51.677Z,46.22
2023-05-19T16:06:20.919Z,46.50
2023-05-19T16:08:49.389Z,47.08
2023-05-19T16:11:18.439Z,47.73
2023-05-19T16:13:47.336Z,48.10
2023-05-19T16:16:16.071Z,48.35
2023-05-19T16:18:49.506Z,48.31
2023-05-19T16:21:22.009Z,48.07
2023-05-19T16:23:50.393Z,48.38
2023-05-19T16:26:18.786Z,48.64
2023-05-19T16:28:47.179Z,49.07
2023-05-19T16:31:15.699Z,49.22
2023-05-19T16:33:44.182Z,49.54
2023-05-19T16:36:12.645Z,49.92
2023-05-19T16:38:41.053Z,49.96
2023-05-19T16:41:12.186Z,50.07
2023-05-19T16:43:40.925Z,50.23
2023-05-19T16:46:12.415Z,49.98
2023-05-19T16:48:41.005Z,50.04
2023-05-19T16:51:09.280Z,50.01
2023-05-19T16:53:37.769Z,50.42
2023-05-19T16:56:08.242Z,50.28
2023-05-19T16:58:36.531Z,50.40
